createdAt,value
2018-12-30T00:02:12.703Z,102371.05
2018-12-30T00:07:08.402Z,102378.97
2018-12-30T00:12:03.877Z,102395.22
2018-12-30T00:16:59.370Z,102408.02
2018-12-30T00:21:54.832Z,102418.14
2018-12-30T00:26:50.714Z,102425.55
2018-12-30T00:31:46.178Z,102429.50
2018-12-30T00:36:41.711Z,102438.30
2018-12-30T00:41:37.492Z,102437.83
2018-12-30T00:46:32.967Z,102447.11
2018-12-30T00:51:28.473Z,102461.59
2018-12-30T00:56:23.969Z,102465.59
2018-12-30T01:01:19.452Z,102473.11
2018-12-30T01:06:14.921Z,102481.51
2018-12-30T01:11:10.407Z,102483.75
2018-12-30T01:16:05.883Z,102491.23
2018-12-30T01:21:01.489Z,102491.27
2018-12-30T01:25:56.981Z,102496.58
2018-12-30T01:30:52.507Z,102505.41
2018-12-30T01:35:48.073Z,102505.41
2018-12-30T01:40:43.591Z,102508.09
2018-12-30T01:45:39.062Z,102528.73
2018-12-30T01:50:34.588Z,102538.93
2018-12-30T01:55:30.177Z,102553.85
2018-12-30T02:00:25.838Z,102534.97
2018-12-30T02:05:21.440Z,102547.32
2018-12-30T02:10:17.422Z,102546.06
2018-12-30T02:15:13.130Z,102548.27
2018-12-30T02:20:08.790Z,102558.86
2018-12-30T02:25:04.500Z,102563.26
2018-12-30T02:30:00.349Z,102564.17
2018-12-30T02:34:56.013Z,102578.66
2018-12-30T02:39:51.822Z,102586.61
2018-12-30T02:44:47.630Z,102583.09
2018-12-30T02:49:43.131Z,102595.88
2018-12-30T02:54:38.594Z,102587.08
2018-12-30T02:59:34.088Z,102600.25
2018-12-30T03:04:29.594Z,102593.62
2018-12-30T03:09:25.133Z,102589.75
2018-12-30T03:14:21.009Z,102586.36
2018-12-30T03:19:16.700Z,102603.52
2018-12-30T03:24:12.205Z,102604.84
2018-12-30T03:29:07.996Z,102593.81
2018-12-30T03:34:03.536Z,102598.23
2018-12-30T03:38:59.220Z,102581.52
2018-12-30T03:43:54.714Z,102582.43
2018-12-30T03:48:50.230Z,102574.17
2018-12-30T03:53:45.867Z,102581.64
2018-12-30T03:58:41.529Z,102597.04
2018-12-30T04:03:37.014Z,102608.92
2018-12-30T04:08:32.472Z,102622.08
2018-12-30T04:13:28.202Z,102608.00
2018-12-30T04:18:23.757Z,102621.70
2018-12-30T04:23:19.367Z,102628.30
2018-12-30T04:28:14.940Z,102628.71
2018-12-30T04:33:10.623Z,102630.06
2018-12-30T04:38:06.333Z,102623.05
2018-12-30T04:43:01.867Z,102625.75
2018-12-30T04:47:57.382Z,102611.30
2018-12-30T04:52:52.905Z,102629.41
2018-12-30T04:57:48.511Z,102652.75
2018-12-30T05:02:44.267Z,102647.06
2018-12-30T05:07:39.802Z,102651.05
2018-12-30T05:12:35.277Z,102655.89
2018-12-30T05:17:30.954Z,102662.95
2018-12-30T05:22:33.616Z,102659.48
2018-12-30T05:27:23.802Z,102646.80
2018-12-30T05:32:19.418Z,102673.69
2018-12-30T05:37:16.860Z,102666.77
2018-12-30T05:42:12.626Z,102686.58
2018-12-30T05:47:10.930Z,102687.89
2018-12-30T05:52:06.700Z,102674.29
2018-12-30T05:57:02.362Z,102652.94
2018-12-30T06:01:57.849Z,102681.63
2018-12-30T06:06:53.493Z,102678.60
2018-12-30T06:11:49.117Z,102680.75
2018-12-30T06:16:44.871Z,102701.74
2018-12-30T06:21:40.519Z,102681.89
2018-12-30T06:26:36.075Z,102697.17
2018-12-30T06:31:31.643Z,102723.01
2018-12-30T06:36:27.275Z,102732.19
2018-12-30T06:41:22.926Z,102727.75
2018-12-30T06:46:18.572Z,102741.27
2018-12-30T06:51:14.226Z,102754.45
2018-12-30T06:56:10.095Z,102756.56
2018-12-30T07:01:05.904Z,102776.77
2018-12-30T07:06:01.525Z,102772.31
2018-12-30T07:10:57.021Z,102777.21
2018-12-30T07:15:52.613Z,102790.38
2018-12-30T07:20:48.339Z,102803.55
2018-12-30T07:25:44.012Z,102820.27
2018-12-30T07:30:39.591Z,102819.37
2018-12-30T07:35:35.147Z,102818.94
2018-12-30T07:40:30.720Z,102808.38
2018-12-30T07:45:26.410Z,102802.61
2018-12-30T07:50:21.943Z,102804.84
2018-12-30T07:55:17.565Z,102807.45
2018-12-30T08:00:13.071Z,102814.45
2018-12-30T08:05:08.627Z,102806.53
2018-12-30T08:10:05.598Z,102807.83
2018-12-30T08:15:03.526Z,102818.81
2018-12-30T08:19:59.331Z,102818.77
2018-12-30T08:24:55.088Z,102827.98
2018-12-30T08:29:50.878Z,102837.19
2018-12-30T08:34:47.529Z,102843.30
2018-12-30T08:39:43.158Z,102841.96
2018-12-30T08:44:39.174Z,102839.68
2018-12-30T08:49:35.196Z,102821.00
2018-12-30T08:54:31.454Z,102837.90
2018-12-30T08:59:27.077Z,102856.83
2018-12-30T09:04:22.563Z,102842.76
2018-12-30T09:09:18.033Z,102856.30
2018-12-30T09:14:13.575Z,102866.56
2018-12-30T09:19:09.026Z,102869.56
2018-12-30T09:24:04.503Z,102881.37
2018-12-30T09:28:59.969Z,102883.82
2018-12-30T09:33:55.508Z,102877.59
2018-12-30T09:38:50.987Z,102892.61
2018-12-30T09:43:46.484Z,102881.20
2018-12-30T09:48:43.468Z,102870.09
2018-12-30T09:53:45.137Z,102866.06
2018-12-30T09:58:38.366Z,102871.09
2018-12-30T10:03:34.273Z,102884.72
2018-12-30T10:08:30.394Z,102880.62
2018-12-30T10:13:26.574Z,102882.79
2018-12-30T10:18:22.059Z,102906.00
2018-12-30T10:23:17.920Z,102904.57
2018-12-30T10:28:14.079Z,102921.03
2018-12-30T10:33:09.995Z,102908.94
2018-12-30T10:38:05.672Z,102923.12
2018-12-30T10:43:01.845Z,102930.23
2018-12-30T10:47:57.682Z,102927.72
2018-12-30T10:52:54.092Z,102930.93
2018-12-30T10:57:50.162Z,102917.29
2018-12-30T11:02:46.746Z,102912.85
2018-12-30T11:07:42.881Z,102914.48
2018-12-30T11:12:39.170Z,102916.25
2018-12-30T11:17:35.596Z,102897.61
2018-12-30T11:22:31.642Z,102879.36
2018-12-30T11:27:27.596Z,102868.75
2018-12-30T11:32:23.135Z,102867.90
2018-12-30T11:37:18.638Z,102869.66
2018-12-30T11:42:14.143Z,102862.12
2018-12-30T11:47:09.632Z,102868.58
2018-12-30T11:52:05.130Z,102861.89
2018-12-30T11:57:00.630Z,102843.06
2018-12-30T12:01:56.126Z,102834.12
2018-12-30T12:06:51.602Z,102833.77
2018-12-30T12:11:47.099Z,102838.35
2018-12-30T12:16:42.597Z,102841.78
2018-12-30T12:21:38.563Z,102831.88
2018-12-30T12:26:34.040Z,102827.02
2018-12-30T12:31:29.539Z,102840.63
2018-12-30T12:36:25.166Z,102839.30
2018-12-30T12:41:20.801Z,102833.06
2018-12-30T12:46:16.303Z,102819.49
2018-12-30T12:51:11.785Z,102819.09
2018-12-30T12:56:07.290Z,102808.47
2018-12-30T13:01:03.198Z,102820.27
2018-12-30T13:05:58.709Z,102826.34
2018-12-30T13:10:54.217Z,102832.85
2018-12-30T13:15:49.852Z,102824.40
2018-12-30T13:20:47.667Z,102827.41
2018-12-30T13:25:43.355Z,102837.97
2018-12-30T13:30:38.894Z,102825.98
2018-12-30T13:35:34.390Z,102812.93
2018-12-30T13:40:30.050Z,102820.09
2018-12-30T13:45:25.647Z,102811.38
2018-12-30T13:50:21.290Z,102808.81
2018-12-30T13:55:16.770Z,102812.14
2018-12-30T14:00:14.188Z,102822.82
2018-12-30T14:05:09.782Z,102824.75
2018-12-30T14:10:06.408Z,102829.73
2018-12-30T14:15:01.932Z,102835.16
2018-12-30T14:19:57.388Z,102839.21
2018-12-30T14:24:55.487Z,102830.97
2018-12-30T14:29:50.143Z,102838.99
2018-12-30T14:34:45.740Z,102850.92
2018-12-30T14:39:41.324Z,102853.21
2018-12-30T14:44:36.833Z,102855.98
2018-12-30T14:49:32.509Z,102851.28
2018-12-30T14:54:27.994Z,102840.39
2018-12-30T14:59:23.509Z,102830.34
2018-12-30T15:04:19.063Z,102833.05
2018-12-30T15:09:14.556Z,102828.20
2018-12-30T15:14:10.026Z,102824.77
2018-12-30T15:19:05.495Z,102815.95
2018-12-30T15:24:01.059Z,102807.15
2018-12-30T15:28:56.765Z,102814.64
2018-12-30T15:33:52.256Z,102819.06
2018-12-30T15:38:47.766Z,102830.11
2018-12-30T15:43:43.311Z,102824.86
2018-12-30T15:48:38.780Z,102832.30
2018-12-30T15:53:34.292Z,102819.06
2018-12-30T15:58:29.776Z,102821.27
2018-12-30T16:03:25.266Z,102812.52
2018-12-30T16:08:20.812Z,102809.47
2018-12-30T16:13:16.316Z,102805.54
2018-12-30T16:18:11.859Z,102790.59
2018-12-30T16:23:07.418Z,102771.72
2018-12-30T16:28:02.894Z,102778.88
2018-12-30T16:32:58.473Z,102793.03
2018-12-30T16:37:54.010Z,102791.29
2018-12-30T16:42:49.487Z,102786.56
2018-12-30T16:47:44.954Z,102783.48
2018-12-30T16:52:40.433Z,102784.85
2018-12-30T16:57:35.965Z,102784.05
2018-12-30T17:02:31.462Z,102792.50
2018-12-30T17:07:26.943Z,102791.70
2018-12-30T17:12:22.533Z,102783.83
2018-12-30T17:17:17.987Z,102782.52
2018-12-30T17:22:13.475Z,102778.17
2018-12-30T17:27:08.962Z,102784.34
2018-12-30T17:32:04.605Z,102798.43
2018-12-30T17:37:00.159Z,102788.77
2018-12-30T17:41:55.664Z,102773.02
2018-12-30T17:46:51.192Z,102776.13
2018-12-30T17:51:46.662Z,102766.45
2018-12-30T17:56:42.254Z,102762.52
2018-12-30T18:01:37.726Z,102764.30
2018-12-30T18:06:33.241Z,102760.31
2018-12-30T18:11:28.759Z,102756.39
2018-12-30T18:16:24.369Z,102756.36
2018-12-30T18:21:19.910Z,102754.16
2018-12-30T18:26:15.449Z,102745.80
2018-12-30T18:31:11.189Z,102751.93
2018-12-30T18:36:06.663Z,102757.58
2018-12-30T18:41:02.221Z,102772.47
2018-12-30T18:45:57.716Z,102761.45
2018-12-30T18:50:53.187Z,102766.67
2018-12-30T18:55:48.697Z,102763.95
2018-12-30T19:00:44.201Z,102763.92
2018-12-30T19:05:39.730Z,102765.19
2018-12-30T19:10:35.245Z,102757.66
2018-12-30T19:15:30.728Z,102750.15
2018-12-30T19:20:26.222Z,102742.23
2018-12-30T19:25:21.682Z,102740.02
2018-12-30T19:30:17.185Z,102734.74
2018-12-30T19:35:12.719Z,102730.75
2018-12-30T19:40:10.675Z,102734.30
2018-12-30T19:45:06.272Z,102732.95
2018-12-30T19:50:01.759Z,102732.48
2018-12-30T19:54:57.345Z,102734.63
2018-12-30T19:59:52.870Z,102728.00
2018-12-30T20:04:48.376Z,102728.00
2018-12-30T20:09:43.879Z,102735.02
2018-12-30T20:14:39.454Z,102736.25
2018-12-30T20:19:34.947Z,102748.10
2018-12-30T20:24:30.451Z,102751.59
2018-12-30T20:29:25.914Z,102745.37
2018-12-30T20:34:21.429Z,102742.20
2018-12-30T20:39:16.938Z,102742.58
2018-12-30T20:44:12.400Z,102736.36
2018-12-30T20:49:07.926Z,102733.27
2018-12-30T20:54:03.413Z,102729.31
2018-12-30T20:58:58.885Z,102726.23
2018-12-30T21:03:54.463Z,102726.20
2018-12-30T21:08:49.962Z,102729.25
2018-12-30T21:13:45.452Z,102736.77
2018-12-30T21:18:40.969Z,102730.22
2018-12-30T21:23:36.467Z,102739.09
2018-12-30T21:28:31.955Z,102729.41
2018-12-30T21:33:27.435Z,102721.48
2018-12-30T21:38:23.010Z,102722.83
2018-12-30T21:43:18.604Z,102731.19
2018-12-30T21:48:14.131Z,102730.31
2018-12-30T21:53:09.601Z,102727.23
2018-12-30T21:58:05.154Z,102711.38
2018-12-30T22:03:00.645Z,102709.69
2018-12-30T22:07:56.148Z,102713.65
2018-12-30T22:12:51.642Z,102715.00
2018-12-30T22:17:47.230Z,102713.27
2018-12-30T22:22:42.724Z,102703.17
2018-12-30T22:27:38.290Z,102712.42
2018-12-30T22:32:33.800Z,102716.38
2018-12-30T22:37:29.295Z,102713.73
2018-12-30T22:42:32.539Z,102720.75
2018-12-30T22:47:23.774Z,102722.04
2018-12-30T22:52:19.404Z,102724.65
2018-12-30T22:57:14.863Z,102731.66
2018-12-30T23:02:10.361Z,102739.12
2018-12-30T23:07:05.867Z,102734.24
2018-12-30T23:12:01.740Z,102735.09
2018-12-30T23:16:57.319Z,102742.99
2018-12-30T23:21:52.813Z,102738.11
2018-12-30T23:26:48.369Z,102737.67
2018-12-30T23:31:43.854Z,102736.73
2018-12-30T23:36:39.375Z,102733.69
2018-12-30T23:41:34.866Z,102739.38
2018-12-30T23:46:30.366Z,102735.78
2018-12-30T23:51:25.877Z,102736.23
2018-12-30T23:56:21.322Z,102732.23
